createdAt,value
2017-12-22T00:02:15.998Z,7.20
2017-12-22T00:04:42.949Z,7.10
2017-12-22T00:07:09.861Z,7.00
2017-12-22T00:09:36.801Z,7.10
2017-12-22T00:12:03.713Z,7.10
2017-12-22T00:14:31.403Z,7.10
2017-12-22T00:16:58.320Z,7.00
2017-12-22T00:19:25.311Z,7.10
2017-12-22T00:21:52.188Z,7.10
2017-12-22T00:24:19.144Z,7.10
2017-12-22T00:26:46.066Z,7.20
2017-12-22T00:29:13.008Z,7.10
2017-12-22T00:31:39.976Z,7.00
2017-12-22T00:34:07.652Z,7.00
2017-12-22T00:36:34.575Z,7.00
2017-12-22T00:39:02.264Z,7.00
2017-12-22T00:41:29.164Z,7.00
2017-12-22T00:43:56.080Z,7.00
2017-12-22T00:46:22.984Z,7.10
2017-12-22T00:48:50.669Z,7.10
2017-12-22T00:51:17.584Z,7.00
2017-12-22T00:53:45.313Z,7.00
2017-12-22T00:56:12.222Z,7.00
2017-12-22T00:58:39.132Z,7.00
2017-12-22T01:01:06.985Z,7.10
2017-12-22T01:03:33.900Z,7.10
2017-12-22T01:06:05.365Z,7.20
2017-12-22T01:08:32.283Z,7.20
2017-12-22T01:10:59.204Z,7.10
2017-12-22T01:13:26.108Z,7.10
2017-12-22T01:15:53.949Z,7.10
2017-12-22T01:18:20.854Z,7.10
2017-12-22T01:20:47.802Z,7.10
2017-12-22T01:23:14.721Z,7.00
2017-12-22T01:25:41.667Z,7.10
2017-12-22T01:28:09.337Z,6.90
2017-12-22T01:30:37.028Z,6.90
2017-12-22T01:33:03.945Z,6.90
2017-12-22T01:35:31.641Z,6.80
2017-12-22T01:37:58.561Z,6.80
2017-12-22T01:40:25.500Z,6.90
2017-12-22T01:42:52.418Z,6.80
2017-12-22T01:45:19.340Z,6.80
2017-12-22T01:47:46.250Z,6.80
2017-12-22T01:50:13.193Z,6.80
2017-12-22T01:52:40.116Z,6.80
2017-12-22T01:55:07.028Z,6.80
2017-12-22T01:57:33.947Z,6.70
2017-12-22T02:00:00.857Z,6.80
2017-12-22T02:02:27.785Z,6.70
2017-12-22T02:04:54.694Z,6.70
2017-12-22T02:07:21.614Z,6.70
2017-12-22T02:09:48.520Z,6.60
2017-12-22T02:12:15.445Z,6.60
2017-12-22T02:14:43.120Z,6.70
2017-12-22T02:17:10.810Z,6.60
2017-12-22T02:19:37.713Z,6.60
2017-12-22T02:22:05.400Z,6.60
2017-12-22T02:24:32.304Z,6.60
2017-12-22T02:26:59.228Z,6.60
2017-12-22T02:29:26.131Z,6.70
2017-12-22T02:31:53.057Z,6.70
2017-12-22T02:34:20.747Z,6.70
2017-12-22T02:36:47.681Z,6.70
2017-12-22T02:39:14.589Z,6.60
2017-12-22T02:41:41.519Z,6.70
2017-12-22T02:44:08.424Z,6.60
2017-12-22T02:46:35.357Z,6.60
2017-12-22T02:49:02.264Z,6.60
2017-12-22T02:51:29.193Z,6.60
2017-12-22T02:53:56.100Z,6.60
2017-12-22T02:56:23.038Z,6.60
2017-12-22T02:58:50.033Z,6.60
2017-12-22T03:01:17.933Z,6.70
2017-12-22T03:03:45.608Z,6.70
2017-12-22T03:06:12.513Z,6.70
2017-12-22T03:08:39.432Z,6.70
2017-12-22T03:11:07.341Z,6.70
2017-12-22T03:13:35.036Z,6.70
2017-12-22T03:16:01.940Z,6.70
2017-12-22T03:18:29.619Z,6.70
2017-12-22T03:20:57.288Z,6.60
2017-12-22T03:23:24.216Z,6.60
2017-12-22T03:25:51.884Z,6.60
2017-12-22T03:28:19.570Z,6.60
2017-12-22T03:30:46.468Z,6.60
2017-12-22T03:33:13.391Z,6.60
2017-12-22T03:35:40.355Z,6.70
2017-12-22T03:38:07.258Z,6.70
2017-12-22T03:40:34.164Z,6.80
2017-12-22T03:43:01.089Z,6.80
2017-12-22T03:45:28.003Z,6.90
2017-12-22T03:47:54.952Z,6.90
2017-12-22T03:50:21.878Z,6.80
2017-12-22T03:52:48.801Z,6.80
2017-12-22T03:55:16.477Z,6.70
2017-12-22T03:57:43.404Z,6.70
2017-12-22T04:00:11.289Z,6.70
2017-12-22T04:02:38.984Z,6.60
2017-12-22T04:05:05.889Z,6.60
2017-12-22T04:07:33.610Z,6.60
2017-12-22T04:10:00.521Z,6.50
2017-12-22T04:12:28.212Z,6.40
2017-12-22T04:14:55.116Z,6.40
2017-12-22T04:17:22.809Z,6.30
2017-12-22T04:19:51.654Z,6.30
2017-12-22T04:22:18.577Z,6.30
2017-12-22T04:24:45.481Z,6.40
2017-12-22T04:27:12.432Z,6.40
2017-12-22T04:29:39.344Z,6.40
2017-12-22T04:32:07.019Z,6.40
2017-12-22T04:34:33.943Z,6.40
2017-12-22T04:37:01.626Z,6.30
2017-12-22T04:39:28.553Z,6.30
2017-12-22T04:41:56.226Z,6.20
2017-12-22T04:44:23.908Z,6.20
2017-12-22T04:46:50.813Z,6.20
2017-12-22T04:49:17.732Z,6.30
2017-12-22T04:51:44.636Z,6.20
2017-12-22T04:54:11.550Z,6.30
2017-12-22T04:56:39.220Z,6.20
2017-12-22T04:59:06.916Z,6.20
2017-12-22T05:01:33.848Z,6.20
2017-12-22T05:04:00.785Z,6.20
2017-12-22T05:06:27.705Z,6.10
2017-12-22T05:08:54.647Z,6.10
2017-12-22T05:11:22.340Z,6.10
2017-12-22T05:13:49.258Z,6.10
2017-12-22T05:16:16.932Z,6.20
2017-12-22T05:18:44.617Z,6.20
2017-12-22T05:21:11.530Z,6.20
2017-12-22T05:23:38.453Z,6.30
2017-12-22T05:26:05.349Z,6.30
2017-12-22T05:28:32.272Z,6.20
2017-12-22T05:30:59.176Z,6.20
2017-12-22T05:33:26.077Z,6.30
2017-12-22T05:35:52.999Z,6.30
2017-12-22T05:38:19.900Z,6.30
2017-12-22T05:40:46.816Z,6.20
2017-12-22T05:43:13.715Z,6.30
2017-12-22T05:45:40.631Z,6.20
2017-12-22T05:48:07.536Z,6.30
2017-12-22T05:50:34.452Z,6.30
2017-12-22T05:53:01.356Z,6.30
2017-12-22T05:55:29.045Z,6.30
2017-12-22T05:57:55.953Z,6.30
2017-12-22T06:00:23.666Z,6.30
2017-12-22T06:02:50.568Z,6.30
2017-12-22T06:05:18.261Z,6.30
2017-12-22T06:07:45.168Z,6.30
2017-12-22T06:10:12.114Z,6.40
2017-12-22T06:12:39.026Z,6.40
2017-12-22T06:15:06.719Z,6.30
2017-12-22T06:17:33.628Z,6.40
2017-12-22T06:20:01.321Z,6.30
2017-12-22T06:22:28.224Z,6.30
2017-12-22T06:24:55.152Z,6.30
2017-12-22T06:27:22.065Z,6.30
2017-12-22T06:29:48.996Z,6.20
2017-12-22T06:32:15.908Z,6.10
2017-12-22T06:34:43.643Z,6.10
2017-12-22T06:37:10.524Z,6.10
2017-12-22T06:39:39.381Z,6.10
2017-12-22T06:42:06.289Z,6.10
2017-12-22T06:44:33.977Z,6.20
2017-12-22T06:47:00.876Z,6.20
2017-12-22T06:49:27.804Z,6.20
2017-12-22T06:51:54.712Z,6.20
2017-12-22T06:54:22.504Z,6.20
2017-12-22T06:56:50.345Z,6.20
2017-12-22T06:59:17.259Z,6.20
2017-12-22T07:01:44.156Z,6.20
2017-12-22T07:04:11.077Z,6.20
2017-12-22T07:06:37.982Z,6.20
2017-12-22T07:09:04.900Z,6.20
2017-12-22T07:11:31.803Z,6.20
2017-12-22T07:13:58.720Z,6.10
2017-12-22T07:16:26.391Z,6.10
2017-12-22T07:18:54.079Z,6.00
2017-12-22T07:21:20.996Z,6.00
2017-12-22T07:23:47.916Z,6.00
2017-12-22T07:26:14.839Z,5.90
2017-12-22T07:28:41.786Z,5.90
2017-12-22T07:31:10.461Z,6.00
2017-12-22T07:33:38.129Z,5.90
2017-12-22T07:36:05.856Z,5.90
2017-12-22T07:38:32.793Z,5.90
2017-12-22T07:41:00.612Z,5.90
2017-12-22T07:43:28.281Z,5.90
2017-12-22T07:45:55.974Z,5.90
2017-12-22T07:48:22.880Z,5.90
2017-12-22T07:50:50.569Z,5.90
2017-12-22T07:53:18.330Z,5.90
2017-12-22T07:55:45.248Z,6.00
2017-12-22T07:58:12.928Z,6.00
2017-12-22T08:00:39.844Z,5.90
2017-12-22T08:03:06.749Z,6.00
2017-12-22T08:05:33.696Z,6.00
2017-12-22T08:08:00.623Z,6.10
2017-12-22T08:10:28.564Z,6.00
2017-12-22T08:12:55.486Z,6.00
2017-12-22T08:15:22.405Z,6.00
2017-12-22T08:17:49.357Z,5.90
2017-12-22T08:20:16.329Z,5.90
2017-12-22T08:22:44.014Z,5.90
2017-12-22T08:25:10.926Z,5.90
2017-12-22T08:27:37.873Z,5.80
2017-12-22T08:30:04.805Z,5.80
2017-12-22T08:32:31.737Z,5.70
2017-12-22T08:34:58.640Z,5.70
2017-12-22T08:37:25.596Z,5.70
2017-12-22T08:39:52.520Z,5.70
2017-12-22T08:42:19.442Z,5.60
2017-12-22T08:44:48.043Z,5.60
2017-12-22T08:47:15.762Z,5.60
2017-12-22T08:49:42.669Z,5.60
2017-12-22T08:52:09.583Z,5.50
2017-12-22T08:54:37.269Z,5.60
2017-12-22T08:57:04.177Z,5.60
2017-12-22T08:59:31.092Z,5.70
2017-12-22T09:01:57.997Z,5.80
2017-12-22T09:04:24.936Z,5.80
2017-12-22T09:06:51.853Z,5.90
2017-12-22T09:09:19.541Z,6.00
2017-12-22T09:11:47.213Z,6.00
2017-12-22T09:14:14.137Z,6.00
2017-12-22T09:16:41.036Z,6.10
2017-12-22T09:19:08.004Z,6.20
2017-12-22T09:21:34.877Z,6.20
2017-12-22T09:24:02.571Z,6.30
2017-12-22T09:26:29.473Z,6.20
2017-12-22T09:28:56.388Z,6.30
2017-12-22T09:31:23.304Z,6.40
2017-12-22T09:33:50.220Z,6.50
2017-12-22T09:36:17.893Z,6.50
2017-12-22T09:38:44.821Z,6.50
2017-12-22T09:41:13.510Z,6.40
2017-12-22T09:43:41.206Z,6.40
2017-12-22T09:46:08.125Z,6.40
2017-12-22T09:48:35.814Z,6.40
2017-12-22T09:51:02.740Z,6.30
2017-12-22T09:53:29.660Z,6.40
2017-12-22T09:55:57.328Z,6.40
2017-12-22T09:58:26.046Z,6.40
2017-12-22T10:00:52.969Z,6.50
2017-12-22T10:03:19.909Z,6.40
2017-12-22T10:05:48.589Z,6.50
2017-12-22T10:08:16.282Z,6.50
2017-12-22T10:10:43.188Z,6.40
2017-12-22T10:13:10.875Z,6.50
2017-12-22T10:15:37.781Z,6.50
2017-12-22T10:18:04.701Z,6.50
2017-12-22T10:20:31.607Z,6.40
2017-12-22T10:22:58.528Z,6.50
2017-12-22T10:25:26.201Z,6.50
2017-12-22T10:27:53.125Z,6.50
2017-12-22T10:30:20.037Z,6.50
2017-12-22T10:32:46.962Z,6.50
2017-12-22T10:35:13.868Z,6.60
2017-12-22T10:37:40.785Z,6.50
2017-12-22T10:40:07.699Z,6.50
2017-12-22T10:42:34.618Z,6.50
2017-12-22T10:45:02.292Z,6.40
2017-12-22T10:47:29.204Z,6.40
2017-12-22T10:49:56.116Z,6.40
2017-12-22T10:52:23.042Z,6.50
2017-12-22T10:54:49.954Z,6.50
2017-12-22T10:57:17.672Z,6.50
2017-12-22T10:59:44.593Z,6.50
2017-12-22T11:02:11.567Z,6.50
2017-12-22T11:04:39.252Z,6.60
2017-12-22T11:07:06.181Z,6.60
2017-12-22T11:09:33.137Z,6.50
2017-12-22T11:12:00.063Z,6.60
2017-12-22T11:14:27.071Z,6.80
2017-12-22T11:16:53.994Z,6.90
2017-12-22T11:19:20.899Z,6.80
2017-12-22T11:21:48.797Z,6.80
2017-12-22T11:24:16.472Z,6.80
2017-12-22T11:26:43.412Z,6.80
2017-12-22T11:29:10.352Z,6.80
2017-12-22T11:31:38.029Z,6.90
2017-12-22T11:34:04.954Z,6.90
2017-12-22T11:36:31.888Z,6.90
2017-12-22T11:38:58.800Z,6.90
2017-12-22T11:41:26.676Z,7.00
2017-12-22T11:43:53.607Z,7.00
2017-12-22T11:46:20.524Z,7.00
2017-12-22T11:48:47.453Z,7.00
2017-12-22T11:51:14.355Z,7.00
2017-12-22T11:53:41.276Z,7.10
2017-12-22T11:56:08.189Z,6.90
2017-12-22T11:58:35.880Z,6.90
2017-12-22T12:01:02.780Z,6.90
2017-12-22T12:03:29.708Z,6.90
2017-12-22T12:05:56.616Z,7.00
2017-12-22T12:08:23.553Z,7.00
2017-12-22T12:10:50.485Z,6.90
2017-12-22T12:13:18.333Z,6.90
2017-12-22T12:15:46.021Z,7.00
2017-12-22T12:18:12.925Z,7.00
2017-12-22T12:20:40.616Z,6.90
2017-12-22T12:23:07.520Z,6.90
2017-12-22T12:25:35.217Z,6.90
2017-12-22T12:28:03.056Z,6.90
2017-12-22T12:30:30.764Z,7.00
2017-12-22T12:32:57.668Z,7.00
2017-12-22T12:35:25.352Z,7.00
2017-12-22T12:37:52.268Z,6.90
2017-12-22T12:40:19.184Z,7.00
2017-12-22T12:42:46.861Z,7.00
2017-12-22T12:45:13.804Z,6.80
2017-12-22T12:47:40.724Z,6.90
2017-12-22T12:50:08.396Z,7.00
2017-12-22T12:52:36.092Z,7.00
2017-12-22T12:55:04.949Z,7.00
2017-12-22T12:57:32.636Z,7.00
2017-12-22T12:59:59.549Z,7.00
2017-12-22T13:02:27.242Z,7.00
2017-12-22T13:04:54.916Z,6.90
2017-12-22T13:07:21.836Z,6.90
2017-12-22T13:09:50.512Z,6.90
2017-12-22T13:12:17.437Z,6.80
2017-12-22T13:14:45.108Z,6.80
2017-12-22T13:17:12.804Z,6.90
2017-12-22T13:19:39.716Z,6.80
2017-12-22T13:22:07.401Z,7.00
2017-12-22T13:24:34.310Z,6.90
2017-12-22T13:27:01.996Z,6.80
2017-12-22T13:29:28.904Z,6.80
2017-12-22T13:31:55.862Z,6.70
2017-12-22T13:34:22.799Z,6.80
2017-12-22T13:36:49.745Z,6.80
2017-12-22T13:39:16.664Z,6.70
2017-12-22T13:41:43.585Z,6.70
2017-12-22T13:44:11.256Z,6.60
2017-12-22T13:46:38.949Z,6.60
2017-12-22T13:49:05.901Z,6.60
2017-12-22T13:51:32.816Z,6.60
2017-12-22T13:53:59.745Z,6.60
2017-12-22T13:56:27.434Z,6.50
2017-12-22T13:58:54.343Z,6.50
2017-12-22T14:01:22.478Z,6.50
2017-12-22T14:03:49.453Z,6.50
2017-12-22T14:06:16.356Z,6.40
2017-12-22T14:08:43.286Z,6.50
2017-12-22T14:11:10.199Z,6.40
2017-12-22T14:13:37.157Z,6.40
2017-12-22T14:16:04.089Z,6.40
2017-12-22T14:18:31.036Z,6.40
2017-12-22T14:20:57.940Z,6.40
2017-12-22T14:23:24.874Z,6.30
2017-12-22T14:25:51.785Z,6.30
2017-12-22T14:28:18.704Z,6.30
2017-12-22T14:30:46.417Z,6.20
2017-12-22T14:33:14.248Z,6.20
2017-12-22T14:35:41.172Z,6.20
2017-12-22T14:38:08.880Z,6.10
2017-12-22T14:40:36.559Z,6.10
2017-12-22T14:43:03.485Z,6.10
2017-12-22T14:45:31.164Z,6.10
2017-12-22T14:47:58.095Z,6.10
2017-12-22T14:50:25.010Z,6.00
2017-12-22T14:52:52.953Z,6.00
2017-12-22T14:55:20.630Z,5.90
2017-12-22T14:57:47.549Z,5.90
2017-12-22T15:00:14.469Z,5.90
2017-12-22T15:02:41.396Z,5.80
2017-12-22T15:05:09.312Z,5.80
2017-12-22T15:07:37.026Z,5.70
2017-12-22T15:10:04.707Z,5.70
2017-12-22T15:12:31.637Z,5.70
2017-12-22T15:14:59.337Z,5.60
2017-12-22T15:17:26.244Z,5.60
2017-12-22T15:19:53.945Z,5.50
2017-12-22T15:22:20.865Z,5.30
2017-12-22T15:24:47.797Z,5.50
2017-12-22T15:27:14.693Z,5.50
2017-12-22T15:29:41.637Z,5.50
2017-12-22T15:32:08.545Z,5.50
2017-12-22T15:34:35.465Z,5.50
2017-12-22T15:37:03.140Z,5.50
2017-12-22T15:39:30.849Z,5.50
2017-12-22T15:41:57.757Z,5.50
2017-12-22T15:44:25.589Z,5.40
2017-12-22T15:46:53.268Z,5.40
2017-12-22T15:49:20.966Z,5.40
2017-12-22T15:51:47.873Z,5.40
2017-12-22T15:54:15.554Z,5.40
2017-12-22T15:56:44.444Z,5.40
2017-12-22T15:59:11.361Z,5.40
2017-12-22T16:01:38.297Z,5.40
2017-12-22T16:04:05.609Z,5.30
2017-12-22T16:06:36.901Z,5.30
2017-12-22T16:09:04.576Z,5.20
2017-12-22T16:11:31.520Z,5.20
2017-12-22T16:13:59.206Z,5.20
2017-12-22T16:16:26.128Z,5.20
2017-12-22T16:18:53.041Z,5.10
2017-12-22T16:21:20.002Z,5.10
2017-12-22T16:23:53.085Z,5.20
2017-12-22T16:26:20.021Z,5.10
2017-12-22T16:28:46.955Z,5.00
2017-12-22T16:31:14.645Z,5.00
2017-12-22T16:33:41.584Z,5.00
2017-12-22T16:36:16.870Z,5.10
2017-12-22T16:38:43.792Z,5.10
2017-12-22T16:41:10.724Z,4.90
2017-12-22T16:43:37.641Z,5.00
2017-12-22T16:46:04.612Z,4.90
2017-12-22T16:48:31.534Z,4.90
2017-12-22T16:50:58.469Z,4.90
2017-12-22T16:53:26.147Z,4.90
2017-12-22T16:55:53.094Z,5.00
2017-12-22T16:58:20.024Z,4.90
2017-12-22T17:00:47.100Z,4.90
2017-12-22T17:03:14.948Z,5.00
2017-12-22T17:05:41.861Z,5.10
2017-12-22T17:08:09.558Z,4.90
2017-12-22T17:10:36.508Z,4.90
2017-12-22T17:13:03.422Z,4.90
2017-12-22T17:15:31.122Z,4.80
2017-12-22T17:17:59.979Z,4.80
2017-12-22T17:20:27.648Z,4.90
2017-12-22T17:22:54.572Z,4.80
2017-12-22T17:25:22.266Z,4.70
2017-12-22T17:27:49.197Z,4.80
2017-12-22T17:30:16.870Z,4.90
2017-12-22T17:32:43.797Z,5.00
2017-12-22T17:35:11.491Z,4.90
2017-12-22T17:37:38.431Z,4.90
2017-12-22T17:40:05.389Z,4.90
2017-12-22T17:42:32.313Z,5.00
2017-12-22T17:44:59.252Z,4.80
2017-12-22T17:47:26.213Z,4.90
2017-12-22T17:49:53.139Z,4.80
2017-12-22T17:52:20.820Z,4.80
2017-12-22T17:54:48.644Z,4.80
2017-12-22T17:57:15.576Z,4.90
2017-12-22T17:59:42.501Z,4.80
2017-12-22T18:02:09.420Z,4.90
2017-12-22T18:04:40.062Z,4.90
2017-12-22T18:07:07.751Z,5.00
2017-12-22T18:09:34.672Z,4.80
2017-12-22T18:12:02.387Z,5.00
2017-12-22T18:14:29.332Z,4.90
2017-12-22T18:16:56.280Z,5.10
2017-12-22T18:19:23.204Z,5.00
2017-12-22T18:21:50.138Z,4.90
2017-12-22T18:24:17.054Z,5.00
2017-12-22T18:26:44.783Z,5.10
2017-12-22T18:29:11.713Z,5.10
2017-12-22T18:31:40.676Z,5.10
2017-12-22T18:34:07.585Z,5.10
2017-12-22T18:36:36.202Z,5.10
2017-12-22T18:39:03.112Z,5.20
2017-12-22T18:41:30.819Z,5.20
2017-12-22T18:43:57.720Z,5.20
2017-12-22T18:46:24.619Z,5.30
2017-12-22T18:48:51.541Z,5.20
2017-12-22T18:51:18.464Z,5.20
2017-12-22T18:53:45.377Z,5.20
2017-12-22T18:56:12.349Z,5.30
2017-12-22T18:58:39.242Z,5.10
2017-12-22T19:01:06.186Z,5.20
2017-12-22T19:03:33.115Z,5.20
2017-12-22T19:06:00.057Z,5.20
2017-12-22T19:08:26.979Z,5.10
2017-12-22T19:10:54.676Z,5.10
2017-12-22T19:13:21.588Z,5.10
2017-12-22T19:15:48.531Z,5.00
2017-12-22T19:18:15.452Z,5.00
2017-12-22T19:20:42.372Z,5.00
2017-12-22T19:23:09.296Z,5.00
2017-12-22T19:25:36.213Z,4.90
2017-12-22T19:28:03.885Z,5.00
2017-12-22T19:30:32.489Z,5.00
2017-12-22T19:32:59.396Z,4.90
2017-12-22T19:35:27.115Z,5.00
2017-12-22T19:37:54.015Z,4.90
2017-12-22T19:40:20.917Z,4.90
2017-12-22T19:42:48.807Z,5.00
2017-12-22T19:45:15.724Z,4.90
2017-12-22T19:47:42.631Z,4.90
2017-12-22T19:50:09.530Z,5.00
2017-12-22T19:52:36.473Z,5.00
2017-12-22T19:55:04.147Z,5.00
2017-12-22T19:57:31.324Z,5.00
2017-12-22T19:59:58.264Z,5.00
2017-12-22T20:02:25.184Z,5.10
2017-12-22T20:04:52.874Z,5.10
2017-12-22T20:07:20.644Z,5.40
2017-12-22T20:09:47.572Z,5.50
2017-12-22T20:12:14.497Z,5.30
2017-12-22T20:14:41.405Z,5.30
2017-12-22T20:17:08.373Z,5.30
2017-12-22T20:19:35.308Z,5.30
2017-12-22T20:22:02.268Z,5.30
2017-12-22T20:24:29.235Z,5.20
2017-12-22T20:26:58.149Z,5.10
2017-12-22T20:29:25.109Z,5.30
2017-12-22T20:31:52.072Z,5.20
2017-12-22T20:34:18.996Z,5.30
2017-12-22T20:36:49.170Z,5.20
2017-12-22T20:39:16.121Z,5.30
2017-12-22T20:41:43.061Z,5.30
2017-12-22T20:44:09.985Z,5.30
2017-12-22T20:46:36.916Z,5.40
2017-12-22T20:49:05.757Z,5.40
2017-12-22T20:51:33.468Z,5.40
2017-12-22T20:54:00.433Z,5.40
2017-12-22T20:56:27.371Z,5.50
2017-12-22T20:58:54.288Z,5.50
2017-12-22T21:01:21.996Z,5.50
2017-12-22T21:03:54.725Z,5.60
2017-12-22T21:06:21.645Z,5.60
2017-12-22T21:08:48.562Z,5.60
2017-12-22T21:11:15.483Z,5.60
2017-12-22T21:13:42.396Z,5.60
2017-12-22T21:16:09.329Z,5.70
2017-12-22T21:18:36.248Z,5.70
2017-12-22T21:21:03.154Z,5.60
2017-12-22T21:23:30.937Z,5.60
2017-12-22T21:25:57.856Z,5.60
2017-12-22T21:28:24.782Z,5.60
2017-12-22T21:30:51.697Z,5.50
2017-12-22T21:33:18.613Z,5.50
2017-12-22T21:35:45.528Z,5.50
2017-12-22T21:38:12.468Z,5.50
2017-12-22T21:40:39.385Z,5.40
2017-12-22T21:43:06.317Z,5.50
2017-12-22T21:45:33.989Z,5.30
2017-12-22T21:48:00.942Z,5.40
2017-12-22T21:50:27.910Z,5.40
2017-12-22T21:52:54.837Z,5.30
2017-12-22T21:55:21.780Z,5.20
2017-12-22T21:57:48.699Z,5.30
2017-12-22T22:00:16.523Z,5.30
2017-12-22T22:02:43.470Z,5.30
2017-12-22T22:05:11.145Z,5.20
2017-12-22T22:07:38.833Z,5.20
2017-12-22T22:10:06.669Z,5.30
2017-12-22T22:12:34.361Z,5.20
2017-12-22T22:15:01.277Z,5.20
2017-12-22T22:17:28.974Z,5.10
2017-12-22T22:19:55.893Z,5.10
2017-12-22T22:22:22.796Z,5.10
2017-12-22T22:24:49.772Z,5.10
2017-12-22T22:27:16.704Z,5.20
2017-12-22T22:29:43.661Z,5.20
2017-12-22T22:32:10.578Z,5.30
2017-12-22T22:34:41.368Z,5.30
2017-12-22T22:37:08.280Z,5.30
2017-12-22T22:39:35.237Z,5.30
2017-12-22T22:42:02.165Z,5.10
2017-12-22T22:44:29.091Z,5.20
2017-12-22T22:46:55.991Z,5.10
2017-12-22T22:49:23.684Z,5.20
2017-12-22T22:51:50.584Z,5.20
2017-12-22T22:54:17.504Z,5.20
2017-12-22T22:56:44.417Z,5.20
2017-12-22T22:59:11.357Z,5.20
2017-12-22T23:01:38.305Z,5.20
2017-12-22T23:04:05.236Z,5.20
2017-12-22T23:06:32.912Z,5.20
2017-12-22T23:08:59.836Z,5.20
2017-12-22T23:11:28.517Z,5.30
2017-12-22T23:13:56.212Z,5.20
2017-12-22T23:16:23.116Z,5.10
2017-12-22T23:18:50.048Z,5.20
2017-12-22T23:21:16.970Z,5.30
2017-12-22T23:23:43.884Z,5.30
2017-12-22T23:26:10.799Z,5.20
2017-12-22T23:28:38.493Z,5.30
2017-12-22T23:31:05.401Z,5.30
2017-12-22T23:33:33.099Z,5.30
2017-12-22T23:36:00.009Z,5.30
2017-12-22T23:38:27.729Z,5.40
2017-12-22T23:40:54.640Z,5.30
2017-12-22T23:43:21.555Z,5.30
2017-12-22T23:45:49.384Z,5.30
2017-12-22T23:48:16.314Z,5.40
2017-12-22T23:50:43.220Z,5.30
2017-12-22T23:53:10.938Z,5.30
2017-12-22T23:55:37.854Z,5.50
2017-12-22T23:58:04.777Z,5.30
